sensor_id;sensor_type;location;lat;lon;timestamp;P1;durP1;ratioP1;P2;durP2;ratioP2
63259;SDS011;49390;51.380;0.098;2024-03-07T00:00:12;39.90;;;17.27;;
63259;SDS011;49390;51.380;0.098;2024-03-07T00:03:06;38.05;;;15.90;;
63259;SDS011;49390;51.380;0.098;2024-03-07T00:05:33;37.00;;;17.00;;
63259;SDS011;49390;51.380;0.098;2024-03-07T00:08:02;42.50;;;18.70;;
63259;SDS011;49390;51.380;0.098;2024-03-07T00:10:30;51.45;;;16.63;;
63259;SDS011;49390;51.380;0.098;2024-03-07T00:12:59;42.03;;;17.42;;
63259;SDS011;49390;51.380;0.098;2024-03-07T00:15:27;64.25;;;17.45;;
63259;SDS011;49390;51.380;0.098;2024-03-07T00:17:57;54.53;;;16.58;;
63259;SDS011;49390;51.380;0.098;2024-03-07T00:20:25;44.88;;;17.88;;
63259;SDS011;49390;51.380;0.098;2024-03-07T00:22:53;47.17;;;18.27;;
63259;SDS011;49390;51.380;0.098;2024-03-07T00:25:21;61.65;;;17.20;;
63259;SDS011;49390;51.380;0.098;2024-03-07T00:27:49;130.73;;;22.35;;
63259;SDS011;49390;51.380;0.098;2024-03-07T00:30:20;57.83;;;18.47;;
63259;SDS011;49390;51.380;0.098;2024-03-07T00:32:48;90.47;;;18.92;;
63259;SDS011;49390;51.380;0.098;2024-03-07T00:35:16;63.20;;;16.40;;
63259;SDS011;49390;51.380;0.098;2024-03-07T00:37:46;56.63;;;17.80;;
63259;SDS011;49390;51.380;0.098;2024-03-07T00:40:14;63.05;;;17.85;;
63259;SDS011;49390;51.380;0.098;2024-03-07T00:42:42;51.00;;;16.77;;
63259;SDS011;49390;51.380;0.098;2024-03-07T00:45:10;73.63;;;20.23;;
63259;SDS011;49390;51.380;0.098;2024-03-07T00:47:39;58.60;;;20.70;;
63259;SDS011;49390;51.380;0.098;2024-03-07T00:50:07;61.38;;;18.80;;
63259;SDS011;49390;51.380;0.098;2024-03-07T00:52:36;94.22;;;20.95;;
63259;SDS011;49390;51.380;0.098;2024-03-07T00:55:06;64.63;;;20.45;;
63259;SDS011;49390;51.380;0.098;2024-03-07T00:57:37;65.30;;;20.63;;
63259;SDS011;49390;51.380;0.098;2024-03-07T01:00:05;63.15;;;20.95;;
63259;SDS011;49390;51.380;0.098;2024-03-07T01:02:40;64.80;;;20.73;;
63259;SDS011;49390;51.380;0.098;2024-03-07T01:05:11;78.25;;;24.10;;
63259;SDS011;49390;51.380;0.098;2024-03-07T01:07:41;66.35;;;20.48;;
63259;SDS011;49390;51.380;0.098;2024-03-07T01:10:10;73.22;;;22.27;;
63259;SDS011;49390;51.380;0.098;2024-03-07T01:12:38;77.15;;;23.15;;
63259;SDS011;49390;51.380;0.098;2024-03-07T01:15:06;68.32;;;23.02;;
63259;SDS011;49390;51.380;0.098;2024-03-07T01:17:36;70.70;;;22.80;;
63259;SDS011;49390;51.380;0.098;2024-03-07T01:20:04;65.72;;;23.95;;
63259;SDS011;49390;51.380;0.098;2024-03-07T01:22:32;64.75;;;21.92;;
63259;SDS011;49390;51.380;0.098;2024-03-07T01:25:00;69.57;;;23.15;;
63259;SDS011;49390;51.380;0.098;2024-03-07T01:27:28;74.85;;;21.45;;
63259;SDS011;49390;51.380;0.098;2024-03-07T01:29:56;63.88;;;22.13;;
63259;SDS011;49390;51.380;0.098;2024-03-07T01:32:24;66.28;;;24.17;;
63259;SDS011;49390;51.380;0.098;2024-03-07T01:34:51;66.80;;;22.58;;
63259;SDS011;49390;51.380;0.098;2024-03-07T01:37:19;66.18;;;22.33;;
63259;SDS011;49390;51.380;0.098;2024-03-07T01:39:47;76.15;;;23.85;;
63259;SDS011;49390;51.380;0.098;2024-03-07T01:42:15;65.18;;;23.05;;
63259;SDS011;49390;51.380;0.098;2024-03-07T01:44:43;68.50;;;23.92;;
63259;SDS011;49390;51.380;0.098;2024-03-07T01:47:12;68.00;;;22.15;;
63259;SDS011;49390;51.380;0.098;2024-03-07T01:49:41;66.93;;;23.23;;
63259;SDS011;49390;51.380;0.098;2024-03-07T01:52:09;72.85;;;25.33;;
63259;SDS011;49390;51.380;0.098;2024-03-07T01:54:38;68.47;;;24.80;;
63259;SDS011;49390;51.380;0.098;2024-03-07T01:57:06;69.22;;;23.05;;
63259;SDS011;49390;51.380;0.098;2024-03-07T01:59:35;72.53;;;23.80;;
63259;SDS011;49390;51.380;0.098;2024-03-07T02:02:03;65.10;;;23.23;;
63259;SDS011;49390;51.380;0.098;2024-03-07T02:04:31;67.78;;;23.10;;
63259;SDS011;49390;51.380;0.098;2024-03-07T02:06:59;70.93;;;23.00;;
63259;SDS011;49390;51.380;0.098;2024-03-07T02:09:27;67.68;;;22.83;;
63259;SDS011;49390;51.380;0.098;2024-03-07T02:11:55;65.40;;;22.02;;
63259;SDS011;49390;51.380;0.098;2024-03-07T02:14:23;71.00;;;22.85;;
63259;SDS011;49390;51.380;0.098;2024-03-07T02:16:51;67.05;;;21.50;;
63259;SDS011;49390;51.380;0.098;2024-03-07T02:19:19;62.75;;;21.48;;
63259;SDS011;49390;51.380;0.098;2024-03-07T02:21:48;62.75;;;22.42;;
63259;SDS011;49390;51.380;0.098;2024-03-07T02:24:16;63.50;;;20.98;;
63259;SDS011;49390;51.380;0.098;2024-03-07T02:26:44;68.53;;;23.02;;
63259;SDS011;49390;51.380;0.098;2024-03-07T02:29:12;64.90;;;21.42;;
63259;SDS011;49390;51.380;0.098;2024-03-07T02:31:40;72.35;;;22.05;;
63259;SDS011;49390;51.380;0.098;2024-03-07T02:34:08;67.03;;;22.05;;
63259;SDS011;49390;51.380;0.098;2024-03-07T02:36:37;58.85;;;19.67;;
63259;SDS011;49390;51.380;0.098;2024-03-07T02:39:05;69.25;;;23.35;;
63259;SDS011;49390;51.380;0.098;2024-03-07T02:41:33;71.38;;;22.95;;
63259;SDS011;49390;51.380;0.098;2024-03-07T02:44:01;64.00;;;20.35;;
63259;SDS011;49390;51.380;0.098;2024-03-07T02:46:31;66.00;;;22.73;;
63259;SDS011;49390;51.380;0.098;2024-03-07T02:48:59;59.17;;;22.20;;
63259;SDS011;49390;51.380;0.098;2024-03-07T02:51:28;69.82;;;22.02;;
63259;SDS011;49390;51.380;0.098;2024-03-07T02:53:55;64.25;;;23.70;;
63259;SDS011;49390;51.380;0.098;2024-03-07T02:56:24;64.57;;;23.52;;
63259;SDS011;49390;51.380;0.098;2024-03-07T02:58:54;53.42;;;20.08;;
63259;SDS011;49390;51.380;0.098;2024-03-07T03:01:23;72.85;;;24.05;;
63259;SDS011;49390;51.380;0.098;2024-03-07T03:03:50;62.80;;;22.08;;
63259;SDS011;49390;51.380;0.098;2024-03-07T03:06:18;67.28;;;23.23;;
63259;SDS011;49390;51.380;0.098;2024-03-07T03:08:49;61.93;;;22.33;;
63259;SDS011;49390;51.380;0.098;2024-03-07T03:11:17;61.10;;;22.17;;
63259;SDS011;49390;51.380;0.098;2024-03-07T03:13:45;71.20;;;25.23;;
63259;SDS011;49390;51.380;0.098;2024-03-07T03:16:15;65.15;;;23.83;;
63259;SDS011;49390;51.380;0.098;2024-03-07T03:18:46;65.63;;;23.95;;
63259;SDS011;49390;51.380;0.098;2024-03-07T03:21:16;66.22;;;24.13;;
63259;SDS011;49390;51.380;0.098;2024-03-07T03:23:44;58.20;;;23.08;;
63259;SDS011;49390;51.380;0.098;2024-03-07T03:26:12;63.13;;;23.13;;
63259;SDS011;49390;51.380;0.098;2024-03-07T03:28:41;54.35;;;20.70;;
63259;SDS011;49390;51.380;0.098;2024-03-07T03:31:09;57.75;;;23.15;;
63259;SDS011;49390;51.380;0.098;2024-03-07T03:33:37;61.30;;;21.48;;
63259;SDS011;49390;51.380;0.098;2024-03-07T03:36:05;51.38;;;20.55;;
63259;SDS011;49390;51.380;0.098;2024-03-07T03:38:32;50.20;;;21.30;;
63259;SDS011;49390;51.380;0.098;2024-03-07T03:41:00;51.88;;;19.70;;
63259;SDS011;49390;51.380;0.098;2024-03-07T03:43:28;51.53;;;20.13;;
63259;SDS011;49390;51.380;0.098;2024-03-07T03:45:58;47.40;;;18.92;;
63259;SDS011;49390;51.380;0.098;2024-03-07T03:48:25;46.60;;;19.35;;
63259;SDS011;49390;51.380;0.098;2024-03-07T03:50:54;52.00;;;18.13;;
63259;SDS011;49390;51.380;0.098;2024-03-07T03:53:22;47.92;;;18.77;;
63259;SDS011;49390;51.380;0.098;2024-03-07T03:55:50;43.58;;;19.27;;
63259;SDS011;49390;51.380;0.098;2024-03-07T03:58:18;50.30;;;20.02;;
63259;SDS011;49390;51.380;0.098;2024-03-07T04:00:46;47.05;;;19.90;;
63259;SDS011;49390;51.380;0.098;2024-03-07T04:03:13;48.30;;;19.33;;
63259;SDS011;49390;51.380;0.098;2024-03-07T04:05:42;45.63;;;19.10;;
63259;SDS011;49390;51.380;0.098;2024-03-07T04:08:10;49.42;;;19.25;;
63259;SDS011;49390;51.380;0.098;2024-03-07T04:10:39;39.30;;;16.00;;
63259;SDS011;49390;51.380;0.098;2024-03-07T04:13:06;48.20;;;18.73;;
63259;SDS011;49390;51.380;0.098;2024-03-07T04:15:35;45.97;;;18.88;;
63259;SDS011;49390;51.380;0.098;2024-03-07T04:18:04;46.25;;;19.80;;
63259;SDS011;49390;51.380;0.098;2024-03-07T04:20:32;47.38;;;19.75;;
63259;SDS011;49390;51.380;0.098;2024-03-07T04:23:00;46.25;;;19.65;;
63259;SDS011;49390;51.380;0.098;2024-03-07T04:25:29;42.25;;;17.50;;
63259;SDS011;49390;51.380;0.098;2024-03-07T04:27:58;45.08;;;18.85;;
63259;SDS011;49390;51.380;0.098;2024-03-07T04:30:26;51.00;;;20.83;;
63259;SDS011;49390;51.380;0.098;2024-03-07T04:32:54;53.35;;;19.77;;
63259;SDS011;49390;51.380;0.098;2024-03-07T04:35:22;53.72;;;21.92;;
63259;SDS011;49390;51.380;0.098;2024-03-07T04:37:50;50.30;;;20.77;;
63259;SDS011;49390;51.380;0.098;2024-03-07T04:40:20;52.55;;;21.00;;
63259;SDS011;49390;51.380;0.098;2024-03-07T04:42:49;53.15;;;21.15;;
63259;SDS011;49390;51.380;0.098;2024-03-07T04:45:18;50.30;;;19.95;;
63259;SDS011;49390;51.380;0.098;2024-03-07T04:47:46;59.67;;;21.00;;
63259;SDS011;49390;51.380;0.098;2024-03-07T04:50:16;54.13;;;21.17;;
63259;SDS011;49390;51.380;0.098;2024-03-07T04:52:47;57.25;;;24.27;;
63259;SDS011;49390;51.380;0.098;2024-03-07T04:55:17;51.88;;;20.83;;
63259;SDS011;49390;51.380;0.098;2024-03-07T04:57:46;57.25;;;22.00;;
63259;SDS011;49390;51.380;0.098;2024-03-07T05:00:14;56.03;;;21.25;;
63259;SDS011;49390;51.380;0.098;2024-03-07T05:02:45;59.47;;;23.30;;
63259;SDS011;49390;51.380;0.098;2024-03-07T05:05:15;63.08;;;22.50;;
63259;SDS011;49390;51.380;0.098;2024-03-07T05:07:51;60.05;;;22.25;;
63259;SDS011;49390;51.380;0.098;2024-03-07T05:10:20;54.90;;;24.65;;
63259;SDS011;49390;51.380;0.098;2024-03-07T05:12:48;55.03;;;21.48;;
63259;SDS011;49390;51.380;0.098;2024-03-07T05:15:17;61.40;;;24.00;;
63259;SDS011;49390;51.380;0.098;2024-03-07T05:17:45;64.60;;;24.00;;
63259;SDS011;49390;51.380;0.098;2024-03-07T05:20:13;62.25;;;22.98;;
63259;SDS011;49390;51.380;0.098;2024-03-07T05:22:41;64.80;;;23.52;;
63259;SDS011;49390;51.380;0.098;2024-03-07T05:25:18;62.58;;;24.08;;
63259;SDS011;49390;51.380;0.098;2024-03-07T05:27:46;60.97;;;24.30;;
63259;SDS011;49390;51.380;0.098;2024-03-07T05:30:17;62.10;;;23.02;;
63259;SDS011;49390;51.380;0.098;2024-03-07T05:32:45;66.65;;;24.25;;
63259;SDS011;49390;51.380;0.098;2024-03-07T05:35:15;57.78;;;23.30;;
63259;SDS011;49390;51.380;0.098;2024-03-07T05:37:48;61.83;;;24.52;;
63259;SDS011;49390;51.380;0.098;2024-03-07T05:40:19;59.58;;;21.27;;
63259;SDS011;49390;51.380;0.098;2024-03-07T05:42:48;72.80;;;26.00;;
63259;SDS011;49390;51.380;0.098;2024-03-07T05:45:16;67.65;;;25.48;;
63259;SDS011;49390;51.380;0.098;2024-03-07T05:47:45;60.15;;;22.88;;
63259;SDS011;49390;51.380;0.098;2024-03-07T05:50:15;67.97;;;25.73;;
63259;SDS011;49390;51.380;0.098;2024-03-07T05:52:44;65.45;;;24.98;;
63259;SDS011;49390;51.380;0.098;2024-03-07T05:55:12;63.53;;;23.88;;
63259;SDS011;49390;51.380;0.098;2024-03-07T05:57:40;63.78;;;25.02;;
63259;SDS011;49390;51.380;0.098;2024-03-07T06:00:11;56.90;;;24.13;;
63259;SDS011;49390;51.380;0.098;2024-03-07T06:02:42;57.72;;;23.10;;
63259;SDS011;49390;51.380;0.098;2024-03-07T06:05:10;59.80;;;23.40;;
63259;SDS011;49390;51.380;0.098;2024-03-07T06:07:43;57.83;;;22.63;;
63259;SDS011;49390;51.380;0.098;2024-03-07T06:10:13;59.10;;;24.63;;
63259;SDS011;49390;51.380;0.098;2024-03-07T06:12:43;56.35;;;23.70;;
63259;SDS011;49390;51.380;0.098;2024-03-07T06:15:31;52.15;;;23.50;;
63259;SDS011;49390;51.380;0.098;2024-03-07T06:18:01;61.05;;;23.98;;
63259;SDS011;49390;51.380;0.098;2024-03-07T06:20:30;58.72;;;23.25;;
63259;SDS011;49390;51.380;0.098;2024-03-07T06:22:57;57.50;;;24.50;;
63259;SDS011;49390;51.380;0.098;2024-03-07T06:25:26;57.42;;;23.17;;
63259;SDS011;49390;51.380;0.098;2024-03-07T06:28:13;52.28;;;23.23;;
63259;SDS011;49390;51.380;0.098;2024-03-07T06:30:42;61.55;;;24.20;;
63259;SDS011;49390;51.380;0.098;2024-03-07T06:33:12;57.25;;;24.30;;
63259;SDS011;49390;51.380;0.098;2024-03-07T06:35:42;60.00;;;24.92;;
63259;SDS011;49390;51.380;0.098;2024-03-07T06:38:10;55.78;;;24.73;;
63259;SDS011;49390;51.380;0.098;2024-03-07T06:40:39;58.95;;;24.83;;
63259;SDS011;49390;51.380;0.098;2024-03-07T06:43:10;59.40;;;25.38;;
63259;SDS011;49390;51.380;0.098;2024-03-07T06:45:39;49.95;;;22.73;;
63259;SDS011;49390;51.380;0.098;2024-03-07T06:48:08;58.60;;;24.45;;
63259;SDS011;49390;51.380;0.098;2024-03-07T06:50:37;58.28;;;24.77;;
63259;SDS011;49390;51.380;0.098;2024-03-07T06:53:06;56.85;;;24.23;;
63259;SDS011;49390;51.380;0.098;2024-03-07T14:25:53;45.40;;;22.08;;
63259;SDS011;49390;51.380;0.098;2024-03-07T14:31:08;52.53;;;22.02;;
63259;SDS011;49390;51.380;0.098;2024-03-07T14:33:49;46.35;;;21.27;;
63259;SDS011;49390;51.380;0.098;2024-03-07T14:36:34;48.03;;;22.15;;
63259;SDS011;49390;51.380;0.098;2024-03-07T14:39:08;48.45;;;22.00;;
63259;SDS011;49390;51.380;0.098;2024-03-07T14:44:18;52.50;;;22.55;;
63259;SDS011;49390;51.380;0.098;2024-03-07T14:46:48;53.35;;;23.95;;
63259;SDS011;49390;51.380;0.098;2024-03-07T14:49:24;45.80;;;21.10;;
63259;SDS011;49390;51.380;0.098;2024-03-07T14:51:52;49.85;;;22.63;;
63259;SDS011;49390;51.380;0.098;2024-03-07T14:54:27;48.50;;;21.88;;
63259;SDS011;49390;51.380;0.098;2024-03-07T14:56:55;49.20;;;24.02;;
63259;SDS011;49390;51.380;0.098;2024-03-07T14:59:26;44.80;;;22.98;;
63259;SDS011;49390;51.380;0.098;2024-03-07T15:01:55;49.15;;;24.50;;
63259;SDS011;49390;51.380;0.098;2024-03-07T15:04:30;46.30;;;22.07;;
63259;SDS011;49390;51.380;0.098;2024-03-07T15:06:59;43.58;;;21.30;;
63259;SDS011;49390;51.380;0.098;2024-03-07T15:09:30;48.83;;;22.75;;
63259;SDS011;49390;51.380;0.098;2024-03-07T15:11:59;48.17;;;22.38;;
